Time;durP1;ratioP1;P1;durP2;ratioP2;P2;SDS_P1;SDS_P2;PMS_P1;PMS_P2;Temp;Humidity;BMP_temperature;BMP_pressure;BME280_temperature;BME280_humidity;BME280_pressure;Samples;Min_cycle;Max_cycle;Signal;HPM_P1;HPM_P2
2021/06/22 00:01:09;;;;;;;17.77;13.20;;;;;;;23.19;29.05;102207.97;5072539;28;20513;-72
2021/06/22 00:03:35;;;;;;;18.77;13.38;;;;;;;23.18;29.16;102222.28;5072372;28;20055;-89
2021/06/22 00:06:00;;;;;;;18.23;12.63;;;;;;;23.10;29.19;102218.50;5072402;28;20024;-72
2021/06/22 00:08:26;;;;;;;16.58;11.75;;;;;;;23.13;29.09;102228.97;5071950;28;20035;-72
2021/06/22 00:10:52;;;;;;;18.77;12.55;;;;;;;23.12;29.42;102235.69;5072556;28;20024;-71
2021/06/22 00:13:18;;;;;;;16.40;12.13;;;;;;;23.05;29.28;102232.75;5072498;28;20114;-72
2021/06/22 00:15:44;;;;;;;16.20;12.48;;;;;;;23.02;29.40;102233.47;5072514;28;20059;-71
2021/06/22 00:18:10;;;;;;;18.25;10.82;;;;;;;23.01;29.55;102239.41;5072103;28;20060;-90
2021/06/22 00:20:36;;;;;;;18.20;12.05;;;;;;;22.91;29.56;102229.63;5072605;28;20028;-72
2021/06/22 00:23:02;;;;;;;15.85;12.20;;;;;;;22.97;29.67;102233.72;5072077;28;20041;-72
2021/06/22 00:25:27;;;;;;;19.73;13.32;;;;;;;22.97;29.46;102236.50;5074449;28;20035;-72
2021/06/22 00:27:53;;;;;;;16.13;12.50;;;;;;;22.97;29.37;102245.72;5075307;28;20039;-73
2021/06/22 00:30:20;;;;;;;17.02;11.75;;;;;;;22.94;29.63;102234.47;5076024;28;20029;-89
2021/06/22 00:32:47;;;;;;;21.55;13.23;;;;;;;22.96;29.57;102229.31;5075967;28;20386;-72
2021/06/22 00:35:13;;;;;;;17.45;12.88;;;;;;;22.99;29.50;102234.19;5075793;28;20030;-89
2021/06/22 00:37:41;;;;;;;15.00;11.43;;;;;;;23.00;29.53;102229.44;5075723;28;20138;-71
2021/06/22 00:40:08;;;;;;;15.88;11.65;;;;;;;22.94;29.57;102228.88;5075785;28;20029;-86
2021/06/22 00:42:34;;;;;;;16.55;10.95;;;;;;;22.95;29.65;102241.66;5075470;28;20086;-72
2021/06/22 00:45:00;;;;;;;17.25;11.63;;;;;;;22.92;29.70;102228.44;5075280;28;20115;-88
2021/06/22 00:47:27;;;;;;;14.02;11.27;;;;;;;22.90;29.65;102233.59;5075637;28;20024;-86
2021/06/22 00:49:54;;;;;;;17.27;12.10;;;;;;;22.87;29.86;102235.09;5057600;28;20062;-71
2021/06/22 00:52:21;;;;;;;17.88;10.82;;;;;;;22.76;30.15;102228.44;5057450;28;20035;-72
2021/06/22 00:54:47;;;;;;;15.95;11.95;;;;;;;22.75;30.14;102234.34;5075296;28;20115;-72
2021/06/22 00:57:15;;;;;;;17.90;12.02;;;;;;;22.70;30.13;102233.47;5057227;28;20119;-88
2021/06/22 00:59:41;;;;;;;16.23;11.27;;;;;;;22.70;30.10;102239.03;5075129;28;20032;-71
2021/06/22 01:02:07;;;;;;;20.50;12.82;;;;;;;22.67;30.27;102234.19;5075474;28;20114;-72
2021/06/22 01:04:34;;;;;;;17.55;12.90;;;;;;;22.58;30.52;102241.91;5075340;28;20471;-71
2021/06/22 01:07:01;;;;;;;15.10;11.32;;;;;;;22.56;30.27;102238.66;5057175;28;20063;-72
2021/06/22 01:09:30;;;;;;;16.45;11.85;;;;;;;22.40;30.69;102240.63;5075052;28;20039;-71
2021/06/22 01:11:57;;;;;;;12.73;10.63;;;;;;;22.47;30.60;102234.44;5075022;28;20094;-72
2021/06/22 01:14:25;;;;;;;20.48;12.38;;;;;;;22.48;30.56;102239.66;5074699;28;20031;-88
2021/06/22 01:16:51;;;;;;;15.43;11.40;;;;;;;22.48;30.49;102239.66;5074906;28;20502;-72
2021/06/22 01:19:17;;;;;;;14.57;10.60;;;;;;;22.50;30.53;102236.50;5074646;28;20035;-86
2021/06/22 01:21:43;;;;;;;16.20;11.13;;;;;;;22.46;30.73;102244.78;5074722;28;20066;-70
2021/06/22 01:24:09;;;;;;;19.70;12.02;;;;;;;22.45;30.62;102240.38;5074257;28;20469;-70
2021/06/22 01:26:36;;;;;;;13.43;11.73;;;;;;;22.41;30.84;102234.72;5074830;28;20039;-70
2021/06/22 01:29:09;;;;;;;16.10;12.20;;;;;;;22.41;31.01;102237.50;5074787;28;20398;-70
2021/06/22 01:31:35;;;;;;;17.75;12.40;;;;;;;22.23;31.33;102238.19;5074689;28;20103;-69
2021/06/22 01:34:02;;;;;;;15.05;11.48;;;;;;;22.31;30.94;102235.25;5056459;28;20415;-69
2021/06/22 01:36:29;;;;;;;14.27;11.63;;;;;;;22.31;31.07;102228.88;5074005;28;20036;-70
2021/06/22 01:38:55;;;;;;;17.58;12.32;;;;;;;22.28;31.11;102233.16;5074483;28;20063;-70
2021/06/22 01:41:21;;;;;;;20.98;13.30;;;;;;;22.29;31.13;102242.31;5059554;28;20032;-69
2021/06/22 01:43:47;;;;;;;22.27;17.13;;;;;;;22.28;31.05;102235.13;5054273;28;20025;-69
2021/06/22 01:46:13;;;;;;;40.38;24.00;;;;;;;22.23;31.39;102238.19;5054294;28;20033;-69
2021/06/22 01:48:39;;;;;;;37.22;27.75;;;;;;;22.17;31.52;102232.06;5054156;28;20033;-69
2021/06/22 01:51:05;;;;;;;40.40;31.50;;;;;;;22.15;31.52;102231.63;5054484;28;20029;-69
2021/06/22 01:53:30;;;;;;;40.13;29.23;;;;;;;22.19;31.48;102231.72;5054055;28;20494;-69
2021/06/22 01:55:56;;;;;;;37.88;28.88;;;;;;;22.19;31.48;102228.94;5054105;28;20060;-69
2021/06/22 01:58:22;;;;;;;38.80;26.33;;;;;;;22.18;31.58;102230.09;5053958;28;20490;-69
2021/06/22 02:00:51;;;;;;;34.05;23.55;;;;;;;22.18;31.48;102238.44;5054336;28;20108;-70
2021/06/22 02:03:19;;;;;;;34.90;22.83;;;;;;;22.15;31.49;102243.56;5053911;28;20025;-70
2021/06/22 02:05:47;;;;;;;25.73;18.15;;;;;;;22.11;31.53;102244.63;5053827;28;20471;-70
2021/06/22 02:08:13;;;;;;;20.27;15.73;;;;;;;22.19;31.59;102246.44;5053938;28;20063;-85
2021/06/22 02:10:39;;;;;;;22.75;16.05;;;;;;;22.23;31.11;102244.56;5054029;28;20029;-70
2021/06/22 02:13:05;;;;;;;19.73;16.17;;;;;;;22.22;31.22;102245.75;5054063;28;20418;-70
2021/06/22 02:15:31;;;;;;;19.20;15.10;;;;;;;22.17;31.22;102242.41;5054065;28;20028;-86
2021/06/22 02:17:57;;;;;;;21.13;16.73;;;;;;;22.13;31.17;102239.50;5053754;28;20449;-70
2021/06/22 02:20:22;;;;;;;27.05;16.52;;;;;;;22.10;31.34;102238.25;5053889;28;20060;-70
2021/06/22 02:22:48;;;;;;;23.20;17.25;;;;;;;22.12;31.50;102246.25;5049986;28;20053;-86
2021/06/22 02:25:15;;;;;;;22.15;17.65;;;;;;;22.15;31.36;102245.53;5053429;28;20033;-69
2021/06/22 02:27:41;;;;;;;20.50;16.80;;;;;;;22.15;31.33;102253.91;5053636;28;20116;-85
2021/06/22 02:30:13;;;;;;;27.45;19.08;;;;;;;22.12;31.39;102246.25;5053592;28;20029;-86
2021/06/22 02:32:40;;;;;;;21.50;17.15;;;;;;;22.09;31.40;102258.91;5053356;28;20033;-70
2021/06/22 02:35:07;;;;;;;24.02;18.48;;;;;;;22.03;31.49;102245.56;5053437;28;20029;-70
2021/06/22 02:37:34;;;;;;;25.63;17.35;;;;;;;21.83;31.58;102241.81;5053190;28;20029;-87
2021/06/22 02:40:00;;;;;;;25.67;19.17;;;;;;;21.87;31.48;102237.16;5053297;28;20035;-69
2021/06/22 02:42:25;;;;;;;20.98;18.00;;;;;;;21.83;31.69;102244.59;5053251;28;20535;-69
2021/06/22 02:44:51;;;;;;;22.83;17.05;;;;;;;21.86;31.46;102238.34;5053279;28;20079;-69
2021/06/22 02:47:17;;;;;;;19.80;16.27;;;;;;;21.82;31.65;102240.19;5052872;28;20033;-70
2021/06/22 02:49:43;;;;;;;21.48;17.02;;;;;;;21.86;31.48;102235.56;5053518;28;20025;-86
2021/06/22 02:52:09;;;;;;;23.20;16.88;;;;;;;21.82;31.68;102237.41;5053027;28;20548;-80
2021/06/22 02:54:38;;;;;;;18.30;14.32;;;;;;;21.72;31.86;102229.56;5053124;28;20025;-70
2021/06/22 02:57:08;;;;;;;19.20;14.52;;;;;;;21.66;31.65;102230.97;5051587;28;20116;-69
2021/06/22 02:59:35;;;;;;;19.27;15.43;;;;;;;21.57;31.60;102231.94;5051680;28;20514;-69
2021/06/22 03:02:01;;;;;;;21.38;15.23;;;;;;;21.51;31.61;102226.97;5053127;28;20024;-70
2021/06/22 03:04:27;;;;;;;26.17;17.25;;;;;;;21.54;31.84;102229.06;5053011;28;20053;-69
2021/06/22 03:06:52;;;;;;;23.60;18.10;;;;;;;21.55;31.86;102233.47;5052787;28;20053;-86
2021/06/22 03:09:18;;;;;;;24.80;17.25;;;;;;;21.54;31.94;102235.44;5052827;28;20026;-69
2021/06/22 03:11:44;;;;;;;25.65;19.05;;;;;;;21.56;31.90;102241.44;5052751;28;20436;-70
2021/06/22 03:14:10;;;;;;;27.20;20.48;;;;;;;21.64;31.77;102247.22;5052883;28;20021;-69
2021/06/22 03:16:35;;;;;;;26.83;20.20;;;;;;;21.63;31.84;102243.63;5053054;28;20471;-69
2021/06/22 03:19:01;;;;;;;28.42;19.55;;;;;;;21.64;31.82;102250.00;5051682;28;20036;-86
2021/06/22 03:21:27;;;;;;;33.38;21.85;;;;;;;21.65;31.83;102246.88;5051566;28;20056;-84
2021/06/22 03:23:53;;;;;;;29.92;20.58;;;;;;;21.59;32.08;102243.50;5051893;28;20041;-69
2021/06/22 03:26:18;;;;;;;22.33;16.92;;;;;;;21.69;31.76;102249.72;5052756;28;20487;-69
2021/06/22 03:28:44;;;;;;;19.40;15.70;;;;;;;21.64;31.88;102238.88;5052479;28;20055;-69
2021/06/22 03:31:10;;;;;;;20.98;15.25;;;;;;;21.60;31.85;102239.56;5052661;28;20029;-70
2021/06/22 03:33:36;;;;;;;22.75;14.70;;;;;;;21.69;31.75;102244.16;5051267;28;20120;-70
2021/06/22 03:36:03;;;;;;;17.65;13.60;;;;;;;21.72;31.69;102244.28;5050967;28;20120;-69
2021/06/22 03:38:29;;;;;;;15.27;13.52;;;;;;;21.70;31.67;102234.69;5052563;28;20032;-69
2021/06/22 03:40:54;;;;;;;16.55;13.63;;;;;;;21.66;31.76;102236.53;5051160;28;20530;-81
2021/06/22 03:43:21;;;;;;;17.85;12.88;;;;;;;21.62;31.64;102244.00;5052594;28;20029;-69
2021/06/22 03:45:47;;;;;;;19.17;14.30;;;;;;;21.55;31.61;102242.63;5052590;28;20029;-86
2021/06/22 03:48:13;;;;;;;20.52;14.43;;;;;;;21.47;31.75;102240.78;5052576;28;20104;-79
2021/06/22 03:50:39;;;;;;;20.20;14.75;;;;;;;21.41;31.78;102241.38;5051061;28;20043;-69
2021/06/22 03:53:07;;;;;;;16.70;12.93;;;;;;;21.37;31.94;102238.47;5051288;28;20033;-85
2021/06/22 03:55:33;;;;;;;15.85;12.50;;;;;;;21.31;31.89;102245.41;5052490;28;20021;-69
2021/06/22 03:58:01;;;;;;;18.20;14.93;;;;;;;21.29;31.84;102253.31;5052203;28;20459;-86
2021/06/22 04:00:28;;;;;;;18.58;13.65;;;;;;;21.27;31.82;102242.53;5056309;28;20025;-81
2021/06/22 04:02:59;;;;;;;16.55;12.73;;;;;;;21.18;32.11;102239.06;5055159;28;20033;-70
2021/06/22 04:05:27;;;;;;;18.92;12.65;;;;;;;21.17;31.93;102237.44;5054862;28;20021;-70
2021/06/22 04:07:52;;;;;;;20.48;13.65;;;;;;;21.14;32.06;102243.69;5056149;28;20116;-69
2021/06/22 04:10:19;;;;;;;22.42;13.40;;;;;;;21.17;32.03;102247.75;5054829;28;20465;-69
2021/06/22 04:12:44;;;;;;;18.75;12.38;;;;;;;21.08;32.17;102249.81;5055930;28;20108;-69
2021/06/22 04:15:10;;;;;;;17.33;12.75;;;;;;;21.14;32.08;102257.56;5055844;28;20128;-87
2021/06/22 04:17:36;;;;;;;21.52;13.88;;;;;;;21.09;32.39;102252.28;5056102;28;20088;-70
2021/06/22 04:20:03;;;;;;;16.38;12.90;;;;;;;21.14;31.95;102257.56;5055749;28;20033;-76
2021/06/22 04:22:29;;;;;;;25.80;13.75;;;;;;;21.15;32.15;102255.59;5055713;28;20568;-69
2021/06/22 04:24:54;;;;;;;27.98;13.68;;;;;;;21.19;32.04;102265.69;5037903;28;20041;-69
2021/06/22 04:27:20;;;;;;;20.30;13.15;;;;;;;21.18;32.08;102261.28;5037976;28;20059;-69
2021/06/22 04:29:47;;;;;;;20.73;13.80;;;;;;;21.17;32.08;102269.97;5055733;28;20067;-70
2021/06/22 04:32:13;;;;;;;20.10;14.35;;;;;;;21.17;32.15;102261.66;5055872;28;20029;-69
2021/06/22 04:34:39;;;;;;;22.25;14.77;;;;;;;21.11;32.20;102266.63;5055680;28;20056;-70
2021/06/22 04:37:04;;;;;;;17.67;12.13;;;;;;;21.10;32.28;102265.00;5055773;28;20465;-69
2021/06/22 04:39:30;;;;;;;21.20;13.48;;;;;;;21.10;32.48;102269.75;5055664;28;20064;-70
2021/06/22 04:41:56;;;;;;;19.33;13.80;;;;;;;21.11;32.16;102265.81;5055728;28;20049;-69
2021/06/22 04:44:21;;;;;;;16.75;12.40;;;;;;;21.09;32.19;102271.72;5055456;28;20537;-70
2021/06/22 04:46:47;;;;;;;23.80;14.85;;;;;;;21.04;32.21;102269.16;5055571;28;20029;-69
2021/06/22 04:49:13;;;;;;;20.33;13.77;;;;;;;21.08;32.30;102266.50;5055604;28;20645;-69
2021/06/22 04:51:38;;;;;;;18.33;13.23;;;;;;;21.05;32.56;102266.03;5055597;28;20071;-69
2021/06/22 04:54:04;;;;;;;25.27;13.75;;;;;;;20.98;32.59;102274.13;5055355;28;20039;-69
2021/06/22 04:56:30;;;;;;;18.65;12.05;;;;;;;21.13;32.29;102277.38;5055280;28;20056;-85
2021/06/22 04:58:57;;;;;;;20.58;15.13;;;;;;;21.08;32.48;102277.59;5055426;28;20029;-83
2021/06/22 05:01:24;;;;;;;23.60;13.85;;;;;;;21.16;32.39;102277.50;5055381;28;20025;-69
2021/06/22 05:03:50;;;;;;;26.25;13.55;;;;;;;21.15;32.58;102269.50;5055109;28;20578;-69
2021/06/22 05:06:15;;;;;;;21.50;14.00;;;;;;;21.14;32.52;102276.22;5055059;28;20108;-69
2021/06/22 05:08:41;;;;;;;30.02;15.85;;;;;;;21.20;32.45;102272.06;5054935;28;20033;-70
2021/06/22 05:11:07;;;;;;;18.48;12.82;;;;;;;21.29;32.33;102269.97;5054244;28;20036;-69
2021/06/22 05:13:34;;;;;;;17.50;13.30;;;;;;;21.24;32.51;102268.25;5054872;28;20086;-78
2021/06/22 05:16:00;;;;;;;23.70;15.00;;;;;;;21.28;32.47;102266.41;5055029;28;20117;-70
2021/06/22 05:18:27;;;;;;;26.40;15.05;;;;;;;21.25;32.69;102258.75;5054632;28;20517;-68
2021/06/22 05:20:53;;;;;;;21.00;14.50;;;;;;;21.34;32.53;102272.53;5036742;28;20028;-68
2021/06/22 05:23:19;;;;;;;21.67;14.43;;;;;;;21.46;32.59;102269.75;5054757;28;20025;-68
2021/06/22 05:25:45;;;;;;;19.20;12.90;;;;;;;21.54;32.55;102268.81;5054594;28;20032;-69
2021/06/22 05:28:11;;;;;;;21.67;13.70;;;;;;;21.48;32.85;102270.19;5054544;28;20037;-84
2021/06/22 05:30:38;;;;;;;20.00;14.73;;;;;;;21.71;32.64;102272.47;5054577;28;20112;-68
2021/06/22 05:33:03;;;;;;;22.05;14.18;;;;;;;21.83;32.52;102276.00;5054433;28;20029;-68
2021/06/22 05:35:29;;;;;;;18.27;13.27;;;;;;;21.92;32.54;102284.22;5054484;28;20032;-68
2021/06/22 05:37:55;;;;;;;26.90;14.10;;;;;;;21.96;32.77;102293.47;5054383;28;20033;-68
2021/06/22 05:40:21;;;;;;;18.88;14.13;;;;;;;22.14;32.45;102280.94;5054300;28;20108;-84
2021/06/22 05:42:47;;;;;;;18.90;14.35;;;;;;;22.17;32.50;102286.94;5054243;28;20035;-69
2021/06/22 05:45:13;;;;;;;16.75;14.20;;;;;;;22.38;32.46;102284.75;5054005;28;20032;-86
2021/06/22 05:47:38;;;;;;;16.00;13.55;;;;;;;22.41;32.48;102287.63;5054368;28;20037;-70
2021/06/22 05:50:05;;;;;;;30.75;16.02;;;;;;;22.51;32.38;102286.28;5054338;28;20040;-70
2021/06/22 05:52:31;;;;;;;22.20;14.60;;;;;;;22.54;32.31;102282.00;5054251;28;20522;-70
2021/06/22 05:54:57;;;;;;;20.70;15.57;;;;;;;22.63;32.79;102275.06;5054201;28;20116;-71
2021/06/22 05:57:22;;;;;;;21.05;16.05;;;;;;;22.77;32.61;102271.84;5053983;28;20067;-69
2021/06/22 05:59:48;;;;;;;28.02;16.95;;;;;;;22.98;32.57;102277.19;5036348;28;20029;-70
2021/06/22 06:02:14;;;;;;;34.28;23.83;;;;;;;23.41;32.27;102278.16;5054084;28;20085;-70
2021/06/22 06:04:39;;;;;;;44.28;26.48;;;;;;;23.49;31.95;102279.94;5036049;28;20028;-86
2021/06/22 06:07:05;;;;;;;33.95;25.50;;;;;;;23.78;31.36;102278.63;5054235;28;20387;-84
2021/06/22 06:09:31;;;;;;;38.53;24.63;;;;;;;24.07;30.92;102277.22;5054156;28;20663;-70
2021/06/22 06:11:56;;;;;;;28.23;21.10;;;;;;;24.33;30.85;102282.13;5053618;28;20028;-70
2021/06/22 06:14:22;;;;;;;28.13;21.25;;;;;;;24.32;31.02;102286.91;5035899;28;20025;-69
2021/06/22 06:16:48;;;;;;;32.33;22.95;;;;;;;24.56;30.11;102288.59;5053679;28;20064;-86
2021/06/22 06:19:14;;;;;;;30.10;21.75;;;;;;;24.62;30.54;102300.25;5053879;28;20033;-70
2021/06/22 06:21:39;;;;;;;23.35;17.38;;;;;;;24.66;30.32;102292.75;5052864;28;20067;-78
2021/06/22 06:24:06;;;;;;;24.73;17.27;;;;;;;24.83;29.74;102289.44;5072436;28;20024;-79
2021/06/22 06:26:41;;;;;;;25.52;17.55;;;;;;;24.84;30.11;102296.66;5067398;28;20475;-77
2021/06/22 06:29:17;;;;;;;27.50;18.50;;;;;;;24.96;29.54;102292.06;5062770;28;20032;-70
2021/06/22 06:31:43;;;;;;;23.63;16.17;;;;;;;24.87;29.66;102301.50;5055438;28;20024;-72
2021/06/22 06:34:09;;;;;;;20.05;15.25;;;;;;;24.99;29.55;102300.50;5068704;28;20421;-91
2021/06/22 06:36:34;;;;;;;23.40;15.93;;;;;;;25.18;29.22;102306.03;5073531;28;20028;-75
2021/06/22 06:39:00;;;;;;;21.67;14.70;;;;;;;25.18;29.01;102305.22;5072540;28;20028;-89
2021/06/22 06:41:25;;;;;;;23.15;15.35;;;;;;;25.34;28.46;102303.06;5071961;28;20028;-70
2021/06/22 06:43:51;;;;;;;32.40;18.05;;;;;;;25.31;29.02;102314.19;5072622;28;20029;-71
2021/06/22 06:46:16;;;;;;;102.22;31.23;;;;;;;25.58;28.55;102310.22;5055393;28;20386;-88
2021/06/22 06:48:42;;;;;;;30.15;20.42;;;;;;;25.50;28.62;102302.91;5073389;28;20047;-71
2021/06/22 06:51:08;;;;;;;20.90;16.77;;;;;;;25.64;28.68;102305.09;5073121;28;20029;-70
2021/06/22 06:53:34;;;;;;;33.20;19.13;;;;;;;25.79;28.35;102304.13;5072681;28;20489;-73
2021/06/22 06:55:59;;;;;;;25.98;18.35;;;;;;;25.74;28.21;102304.47;5073361;28;20028;-89
2021/06/22 06:58:25;;;;;;;27.40;17.10;;;;;;;25.86;27.96;102311.84;5073603;28;20033;-71
2021/06/22 07:00:50;;;;;;;20.35;13.93;;;;;;;25.82;28.07;102310.97;5073766;28;20059;-71
2021/06/22 07:03:16;;;;;;;26.52;16.50;;;;;;;25.91;27.67;102319.88;5073179;28;20058;-71
2021/06/22 07:05:42;;;;;;;33.60;19.83;;;;;;;25.92;28.05;102315.88;5072783;28;20118;-70
2021/06/22 07:08:08;;;;;;;26.13;17.60;;;;;;;25.93;27.80;102317.53;5072747;28;20026;-69
2021/06/22 07:10:34;;;;;;;33.90;19.38;;;;;;;25.84;28.28;102325.38;5072789;28;20032;-82
2021/06/22 07:13:04;;;;;;;37.95;20.17;;;;;;;26.05;27.44;102330.47;5072772;28;20029;-78
2021/06/22 07:15:30;;;;;;;25.90;17.20;;;;;;;26.23;27.31;102328.69;5055464;28;20024;-72
2021/06/22 07:17:56;;;;;;;28.92;18.60;;;;;;;26.24;27.61;102327.50;5073082;28;20032;-71
2021/06/22 07:20:21;;;;;;;26.17;17.00;;;;;;;26.24;27.52;102339.50;5072780;28;20035;-91
2021/06/22 07:22:47;;;;;;;25.13;16.45;;;;;;;26.33;27.35;102327.19;5073366;28;20044;-72
2021/06/22 07:25:14;;;;;;;19.63;14.82;;;;;;;26.36;27.50;102332.81;5073764;28;20021;-90
2021/06/22 07:27:40;;;;;;;18.30;13.15;;;;;;;26.51;27.04;102326.22;5073748;28;20024;-90
2021/06/22 07:30:06;;;;;;;28.10;18.85;;;;;;;26.53;27.35;102332.25;5072911;28;20024;-79
2021/06/22 07:32:32;;;;;;;22.92;18.23;;;;;;;26.64;27.15;102340.78;5073074;28;20124;-72
2021/06/22 07:34:58;;;;;;;19.25;14.35;;;;;;;26.75;26.92;102324.88;5076549;28;20503;-72
2021/06/22 07:37:23;;;;;;;30.98;17.65;;;;;;;26.76;27.00;102328.47;5076789;28;20033;-70
2021/06/22 07:39:49;;;;;;;24.13;18.00;;;;;;;26.79;26.63;102334.09;5076924;28;20060;-90
2021/06/22 07:42:14;;;;;;;26.40;16.60;;;;;;;26.88;26.57;102339.38;5076804;28;20020;-91
2021/06/22 07:44:40;;;;;;;23.02;15.77;;;;;;;26.98;26.74;102335.06;5077044;28;20536;-71
2021/06/22 07:47:06;;;;;;;42.08;17.80;;;;;;;26.97;26.58;102334.25;5077313;28;20020;-89
2021/06/22 07:49:32;;;;;;;26.85;14.20;;;;;;;27.07;26.54;102342.00;5077373;28;20115;-71
2021/06/22 07:51:57;;;;;;;23.27;14.70;;;;;;;27.13;26.38;102344.44;5059091;28;20028;-70
2021/06/22 07:54:23;;;;;;;25.83;16.95;;;;;;;27.03;26.23;102338.31;5077698;28;20437;-90
2021/06/22 07:56:48;;;;;;;21.27;14.90;;;;;;;27.19;25.96;102348.50;5077659;28;20033;-91
2021/06/22 07:59:14;;;;;;;22.45;15.75;;;;;;;27.21;25.92;102340.53;5077496;28;20071;-87
2021/06/22 08:01:40;;;;;;;22.77;13.40;;;;;;;27.10;25.86;102346.81;5077599;28;20492;-91
2021/06/22 08:04:05;;;;;;;21.25;13.43;;;;;;;27.13;25.67;102338.81;5077587;28;20024;-81
2021/06/22 08:06:31;;;;;;;18.17;11.45;;;;;;;27.31;25.71;102346.19;5077358;28;20028;-91
2021/06/22 08:08:57;;;;;;;16.75;11.40;;;;;;;27.33;25.43;102343.81;5077206;28;20028;-87
2021/06/22 08:11:23;;;;;;;24.92;12.38;;;;;;;27.50;25.42;102341.50;5076383;28;20027;-91
2021/06/22 08:13:49;;;;;;;20.67;14.60;;;;;;;27.31;25.70;102337.78;5076524;28;20112;-89
2021/06/22 08:16:14;;;;;;;28.17;13.43;;;;;;;27.50;25.53;102335.88;5077158;28;20024;-73
2021/06/22 08:18:40;;;;;;;17.25;11.60;;;;;;;27.62;25.13;102339.19;5076643;28;20042;-92
2021/06/22 08:21:06;;;;;;;17.30;12.18;;;;;;;27.70;25.06;102344.88;5071847;28;20076;-71
2021/06/22 08:23:32;;;;;;;19.38;12.52;;;;;;;27.77;24.80;102339.28;5076069;28;20035;-91
2021/06/22 08:25:59;;;;;;;16.45;11.60;;;;;;;27.88;24.71;102340.94;5077413;28;20029;-84
2021/06/22 08:28:25;;;;;;;15.20;11.75;;;;;;;27.91;24.60;102340.19;5058457;28;20028;-70
2021/06/22 08:30:51;;;;;;;15.25;11.25;;;;;;;27.85;24.88;102341.75;5076735;28;20031;-71
2021/06/22 08:33:17;;;;;;;18.85;12.30;;;;;;;28.00;24.66;102344.63;5076080;28;20027;-71
2021/06/22 08:35:43;;;;;;;18.70;10.90;;;;;;;28.09;24.48;102343.06;5075377;28;20086;-70
2021/06/22 08:38:10;;;;;;;20.02;11.18;;;;;;;28.17;24.40;102341.06;5075435;28;20029;-70
2021/06/22 08:40:42;;;;;;;20.55;11.50;;;;;;;28.14;24.62;102342.69;5075907;28;20497;-87
2021/06/22 08:43:13;;;;;;;17.35;11.38;;;;;;;28.29;24.19;102339.91;5076385;28;20029;-87
2021/06/22 08:45:42;;;;;;;27.08;12.35;;;;;;;28.18;23.67;102337.84;5075444;28;20032;-80
2021/06/22 08:48:09;;;;;;;19.02;12.98;;;;;;;28.25;23.66;102339.09;5076422;28;20029;-78
2021/06/22 08:50:37;;;;;;;19.75;12.10;;;;;;;28.15;23.65;102335.84;5075257;28;20029;-87
2021/06/22 08:53:04;;;;;;;20.65;12.20;;;;;;;28.41;23.29;102339.56;5075915;28;20498;-90
2021/06/22 08:55:30;;;;;;;15.70;10.82;;;;;;;28.42;23.07;102336.38;5075869;28;20490;-91
2021/06/22 08:58:01;;;;;;;12.73;9.50;;;;;;;28.34;22.82;102339.53;5074680;28;20399;-73
2021/06/22 09:00:30;;;;;;;13.35;11.48;;;;;;;28.24;22.79;102340.28;5075274;28;20111;-71
2021/06/22 09:03:02;;;;;;;13.60;8.80;;;;;;;28.11;22.99;102346.28;5074853;28;20028;-83
2021/06/22 09:05:33;;;;;;;121.57;21.13;;;;;;;28.30;23.03;102347.19;5075041;28;20303;-71
2021/06/22 09:08:00;;;;;;;11.07;9.15;;;;;;;28.17;22.77;102341.06;5075028;28;20098;-71
2021/06/22 09:10:25;;;;;;;13.40;10.05;;;;;;;28.37;22.40;102338.78;5075136;28;20086;-71
2021/06/22 09:12:53;;;;;;;19.15;10.10;;;;;;;28.31;22.54;102341.16;5075060;28;20383;-82
2021/06/22 09:15:32;;;;;;;16.48;10.77;;;;;;;28.54;22.43;102342.81;5074711;28;20025;-83
2021/06/22 09:17:58;;;;;;;17.73;10.67;;;;;;;28.55;22.46;102344.41;5074773;28;20040;-77
2021/06/22 09:20:38;;;;;;;23.35;11.35;;;;;;;28.56;22.46;102352.44;5073023;28;20032;-75
2021/06/22 09:23:32;;;;;;;24.63;11.68;;;;;;;28.44;22.41;102347.22;5074354;28;20499;-74
2021/06/22 09:26:00;;;;;;;13.90;11.20;;;;;;;28.54;22.41;102346.44;5054709;28;20033;-71
2021/06/22 09:28:31;;;;;;;19.67;11.70;;;;;;;28.46;22.69;102347.63;5072750;28;20025;-71
2021/06/22 09:31:03;;;;;;;17.42;9.70;;;;;;;28.63;22.77;102351.66;5072710;28;20021;-71
2021/06/22 09:33:48;;;;;;;16.88;10.10;;;;;;;28.60;22.48;102356.09;5073594;28;20029;-70
2021/06/22 09:36:26;;;;;;;15.25;9.02;;;;;;;28.85;22.19;102347.69;5071200;28;20029;-71
2021/06/22 09:38:54;;;;;;;11.73;8.88;;;;;;;28.97;21.00;102343.72;5073662;28;20566;-71
2021/06/22 09:41:32;;;;;;;13.88;7.47;;;;;;;28.83;20.71;102343.66;5073955;28;20032;-71
2021/06/22 09:44:12;;;;;;;11.93;9.13;;;;;;;29.05;20.57;102342.50;5074223;28;20387;-71
2021/06/22 09:46:39;;;;;;;;;;;;;;;28.92;20.90;102338.47;5074474;28;20158;-72
2021/06/22 09:49:30;;;;;;;13.63;8.90;;;;;;;29.07;21.00;102345.72;5074003;28;19913;-71
2021/06/22 09:52:03;;;;;;;10.50;8.15;;;;;;;28.92;20.94;102356.16;5054836;28;20383;-82
2021/06/22 09:54:29;;;;;;;10.00;8.80;;;;;;;29.09;20.46;102348.91;5073964;28;20039;-70
2021/06/22 09:57:11;;;;;;;10.93;8.27;;;;;;;29.18;20.95;102349.34;5073177;28;20020;-71
2021/06/22 09:59:45;;;;;;;11.55;7.97;;;;;;;28.98;21.75;102348.13;5073847;28;20086;-71
2021/06/22 10:02:11;;;;;;;14.35;10.05;;;;;;;29.30;21.63;102357.34;5073567;28;20095;-71
2021/06/22 10:04:41;;;;;;;16.05;10.60;;;;;;;29.21;22.48;102354.16;5074031;28;20043;-71
2021/06/22 10:07:12;;;;;;;13.23;10.32;;;;;;;29.31;22.90;102352.53;5073886;28;20099;-71
2021/06/22 10:09:39;;;;;;;11.23;9.27;;;;;;;29.41;22.78;102356.56;5073823;28;20024;-71
2021/06/22 10:12:13;;;;;;;19.10;10.13;;;;;;;29.47;23.06;102357.72;5073328;28;20104;-71
2021/06/22 10:14:42;;;;;;;14.90;10.10;;;;;;;29.30;23.11;102357.34;5055036;28;20395;-71
2021/06/22 10:17:11;;;;;;;15.90;10.48;;;;;;;29.44;23.10;102355.75;5072747;28;20163;-72
2021/06/22 10:19:37;;;;;;;9.88;7.82;;;;;;;29.50;21.78;102349.31;5072908;28;20020;-71
2021/06/22 10:22:05;;;;;;;14.98;10.45;;;;;;;29.64;22.41;102356.94;5072333;28;20051;-71
2021/06/22 10:24:32;;;;;;;56.58;15.10;;;;;;;29.62;22.76;102350.09;5073295;28;20376;-71
2021/06/22 10:27:00;;;;;;;18.80;10.80;;;;;;;29.95;22.70;102340.34;5072861;28;20474;-70
2021/06/22 10:29:27;;;;;;;18.90;10.20;;;;;;;30.01;22.46;102350.00;5073224;28;20359;-70
2021/06/22 10:31:54;;;;;;;13.45;10.93;;;;;;;29.96;22.38;102341.94;5073230;28;20429;-71
2021/06/22 10:34:22;;;;;;;53.00;13.27;;;;;;;29.93;22.44;102343.56;5073304;28;20474;-71
2021/06/22 10:37:13;;;;;;;13.35;10.32;;;;;;;29.76;23.24;102348.03;5072907;28;20039;-71
2021/06/22 10:39:49;;;;;;;14.80;11.07;;;;;;;29.88;22.82;102340.38;5073111;28;20028;-71
2021/06/22 10:42:16;;;;;;;21.35;10.80;;;;;;;30.05;22.36;102347.94;5072846;28;20032;-70
2021/06/22 10:44:59;;;;;;;11.43;10.23;;;;;;;30.02;22.15;102345.94;5072907;28;20032;-71
2021/06/22 10:47:32;;;;;;;14.45;10.52;;;;;;;30.09;22.35;102337.50;5072763;28;20083;-70
2021/06/22 10:50:07;;;;;;;16.63;9.70;;;;;;;30.04;21.92;102335.06;5071319;28;20029;-70
2021/06/22 10:52:48;;;;;;;18.17;10.30;;;;;;;30.23;21.50;102340.25;5072760;28;20021;-71
2021/06/22 10:55:43;;;;;;;15.75;10.68;;;;;;;30.37;21.44;102342.97;5072691;28;20074;-70
2021/06/22 10:58:13;;;;;;;30.75;12.63;;;;;;;30.19;21.46;102338.66;5072275;28;20032;-71
2021/06/22 11:00:42;;;;;;;13.80;9.77;;;;;;;30.16;21.64;102342.31;5072765;28;20506;-71
2021/06/22 11:03:10;;;;;;;11.00;9.90;;;;;;;30.24;21.98;102339.03;5072746;28;20391;-71
2021/06/22 11:05:43;;;;;;;14.77;9.80;;;;;;;30.35;21.78;102339.75;5072829;28;20094;-71
2021/06/22 11:08:09;;;;;;;14.75;9.32;;;;;;;30.34;21.42;102349.44;5071924;28;20051;-81
2021/06/22 11:10:39;;;;;;;13.48;9.55;;;;;;;30.52;21.12;102337.25;5072602;28;20581;-71